sensor_id;sensor_type;location;lat;lon;timestamp;temperature;humidity
12872;DHT22;6504;53.766;9.626;2023-02-05T00:00:16;0.60;99.90
12872;DHT22;6504;53.766;9.626;2023-02-05T00:02:47;0.50;99.90
12872;DHT22;6504;53.766;9.626;2023-02-05T00:05:16;0.50;99.90
12872;DHT22;6504;53.766;9.626;2023-02-05T00:07:44;0.50;99.90
12872;DHT22;6504;53.766;9.626;2023-02-05T00:10:14;0.50;99.90
12872;DHT22;6504;53.766;9.626;2023-02-05T00:12:42;0.40;99.90
12872;DHT22;6504;53.766;9.626;2023-02-05T00:15:10;0.40;99.90
12872;DHT22;6504;53.766;9.626;2023-02-05T00:17:38;0.40;99.90
12872;DHT22;6504;53.766;9.626;2023-02-05T00:20:07;0.30;99.90
12872;DHT22;6504;53.766;9.626;2023-02-05T00:22:35;0.30;99.90
12872;DHT22;6504;53.766;9.626;2023-02-05T00:25:04;0.30;99.90
12872;DHT22;6504;53.766;9.626;2023-02-05T00:27:34;0.30;99.90
12872;DHT22;6504;53.766;9.626;2023-02-05T00:30:02;0.30;99.90
12872;DHT22;6504;53.766;9.626;2023-02-05T00:32:30;0.30;99.90
12872;DHT22;6504;53.766;9.626;2023-02-05T00:34:58;0.30;99.90
12872;DHT22;6504;53.766;9.626;2023-02-05T00:37:26;0.20;99.90
12872;DHT22;6504;53.766;9.626;2023-02-05T00:39:54;0.20;99.90
12872;DHT22;6504;53.766;9.626;2023-02-05T00:42:22;0.20;99.90
12872;DHT22;6504;53.766;9.626;2023-02-05T00:44:51;0.10;99.90
12872;DHT22;6504;53.766;9.626;2023-02-05T00:47:19;0.10;99.90
12872;DHT22;6504;53.766;9.626;2023-02-05T00:49:47;0.10;99.90
12872;DHT22;6504;53.766;9.626;2023-02-05T00:52:15;0.10;99.90
12872;DHT22;6504;53.766;9.626;2023-02-05T00:54:43;0.10;99.90
12872;DHT22;6504;53.766;9.626;2023-02-05T00:57:11;0.10;99.90
12872;DHT22;6504;53.766;9.626;2023-02-05T00:59:39;0.10;99.90
12872;DHT22;6504;53.766;9.626;2023-02-05T01:02:09;0.10;99.90
12872;DHT22;6504;53.766;9.626;2023-02-05T01:04:37;0.10;99.90
12872;DHT22;6504;53.766;9.626;2023-02-05T01:07:05;0.10;99.90
12872;DHT22;6504;53.766;9.626;2023-02-05T01:09:33;0.00;99.90
12872;DHT22;6504;53.766;9.626;2023-02-05T01:12:01;0.00;99.90
12872;DHT22;6504;53.766;9.626;2023-02-05T01:14:29;0.00;99.90
12872;DHT22;6504;53.766;9.626;2023-02-05T01:16:57;0.00;99.90
12872;DHT22;6504;53.766;9.626;2023-02-05T01:19:26;0.00;99.90
12872;DHT22;6504;53.766;9.626;2023-02-05T01:21:54;0.00;99.90
12872;DHT22;6504;53.766;9.626;2023-02-05T01:24:22;0.00;99.90
12872;DHT22;6504;53.766;9.626;2023-02-05T01:26:51;0.00;99.90
12872;DHT22;6504;53.766;9.626;2023-02-05T01:29:21;0.00;99.90
12872;DHT22;6504;53.766;9.626;2023-02-05T01:31:49;0.00;99.90
12872;DHT22;6504;53.766;9.626;2023-02-05T01:34:17;0.00;99.90
12872;DHT22;6504;53.766;9.626;2023-02-05T01:36:47;0.00;99.90
12872;DHT22;6504;53.766;9.626;2023-02-05T01:39:15;0.00;99.90
12872;DHT22;6504;53.766;9.626;2023-02-05T01:41:43;0.00;99.90
12872;DHT22;6504;53.766;9.626;2023-02-05T01:44:14;0.00;99.90
12872;DHT22;6504;53.766;9.626;2023-02-05T01:46:45;0.00;99.90
12872;DHT22;6504;53.766;9.626;2023-02-05T01:49:16;0.00;99.90
12872;DHT22;6504;53.766;9.626;2023-02-05T01:51:48;0.00;99.90
12872;DHT22;6504;53.766;9.626;2023-02-05T01:54:17;0.00;99.90
12872;DHT22;6504;53.766;9.626;2023-02-05T01:56:50;0.00;99.90
12872;DHT22;6504;53.766;9.626;2023-02-05T01:59:21;0.10;99.90
12872;DHT22;6504;53.766;9.626;2023-02-05T02:01:51;0.10;99.90
12872;DHT22;6504;53.766;9.626;2023-02-05T02:04:35;0.10;99.90
12872;DHT22;6504;53.766;9.626;2023-02-05T02:07:12;0.10;99.90
12872;DHT22;6504;53.766;9.626;2023-02-05T02:09:42;0.10;99.90
12872;DHT22;6504;53.766;9.626;2023-02-05T02:12:13;0.10;99.90
12872;DHT22;6504;53.766;9.626;2023-02-05T02:14:45;0.10;99.90
12872;DHT22;6504;53.766;9.626;2023-02-05T02:17:16;0.10;99.90
12872;DHT22;6504;53.766;9.626;2023-02-05T02:19:51;0.10;99.90
12872;DHT22;6504;53.766;9.626;2023-02-05T02:22:36;0.10;99.90
12872;DHT22;6504;53.766;9.626;2023-02-05T02:28:16;0.10;99.90
12872;DHT22;6504;53.766;9.626;2023-02-05T02:30:50;0.10;99.90
12872;DHT22;6504;53.766;9.626;2023-02-05T02:33:28;0.10;99.90
12872;DHT22;6504;53.766;9.626;2023-02-05T02:36:00;0.10;99.90
12872;DHT22;6504;53.766;9.626;2023-02-05T02:38:32;0.10;99.90
12872;DHT22;6504;53.766;9.626;2023-02-05T02:41:05;0.10;99.90
12872;DHT22;6504;53.766;9.626;2023-02-05T02:43:40;0.10;99.90
12872;DHT22;6504;53.766;9.626;2023-02-05T02:46:16;0.10;99.90
12872;DHT22;6504;53.766;9.626;2023-02-05T02:48:47;0.00;99.90
12872;DHT22;6504;53.766;9.626;2023-02-05T02:51:18;0.00;99.90
12872;DHT22;6504;53.766;9.626;2023-02-05T02:53:50;0.00;99.90
12872;DHT22;6504;53.766;9.626;2023-02-05T02:56:22;0.00;99.90
12872;DHT22;6504;53.766;9.626;2023-02-05T02:58:55;0.00;99.90
12872;DHT22;6504;53.766;9.626;2023-02-05T03:01:28;0.10;99.90
12872;DHT22;6504;53.766;9.626;2023-02-05T03:04:01;0.10;99.90
12872;DHT22;6504;53.766;9.626;2023-02-05T03:06:32;0.10;99.90
12872;DHT22;6504;53.766;9.626;2023-02-05T03:09:08;0.00;99.90
12872;DHT22;6504;53.766;9.626;2023-02-05T03:11:39;0.00;99.90
12872;DHT22;6504;53.766;9.626;2023-02-05T03:14:08;0.00;99.90
12872;DHT22;6504;53.766;9.626;2023-02-05T03:16:36;0.00;99.90
12872;DHT22;6504;53.766;9.626;2023-02-05T03:19:04;0.00;99.90
12872;DHT22;6504;53.766;9.626;2023-02-05T03:21:35;0.00;99.90
12872;DHT22;6504;53.766;9.626;2023-02-05T03:24:05;0.00;99.90
12872;DHT22;6504;53.766;9.626;2023-02-05T03:26:35;0.00;99.90
12872;DHT22;6504;53.766;9.626;2023-02-05T03:29:06;0.00;99.90
12872;DHT22;6504;53.766;9.626;2023-02-05T03:31:42;0.00;99.90
12872;DHT22;6504;53.766;9.626;2023-02-05T03:34:21;0.00;99.90
12872;DHT22;6504;53.766;9.626;2023-02-05T03:36:59;0.10;99.90
12872;DHT22;6504;53.766;9.626;2023-02-05T03:39:34;0.10;99.90
12872;DHT22;6504;53.766;9.626;2023-02-05T03:42:14;0.10;99.90
12872;DHT22;6504;53.766;9.626;2023-02-05T03:45:03;0.10;99.90
12872;DHT22;6504;53.766;9.626;2023-02-05T03:47:48;0.10;99.90
12872;DHT22;6504;53.766;9.626;2023-02-05T03:50:23;0.10;99.90
12872;DHT22;6504;53.766;9.626;2023-02-05T03:52:59;0.10;99.90
12872;DHT22;6504;53.766;9.626;2023-02-05T03:55:33;0.10;99.90
12872;DHT22;6504;53.766;9.626;2023-02-05T03:58:07;0.10;99.90
12872;DHT22;6504;53.766;9.626;2023-02-05T04:00:37;0.20;99.90
12872;DHT22;6504;53.766;9.626;2023-02-05T04:03:07;0.20;99.90
12872;DHT22;6504;53.766;9.626;2023-02-05T04:05:36;0.20;99.90
12872;DHT22;6504;53.766;9.626;2023-02-05T04:08:05;0.20;99.90
12872;DHT22;6504;53.766;9.626;2023-02-05T04:10:33;0.20;99.90
12872;DHT22;6504;53.766;9.626;2023-02-05T04:13:01;0.20;99.90
12872;DHT22;6504;53.766;9.626;2023-02-05T04:15:29;0.20;99.90
12872;DHT22;6504;53.766;9.626;2023-02-05T04:17:57;0.20;99.90
12872;DHT22;6504;53.766;9.626;2023-02-05T04:20:27;0.20;99.90
12872;DHT22;6504;53.766;9.626;2023-02-05T04:22:55;0.20;99.90
12872;DHT22;6504;53.766;9.626;2023-02-05T04:25:23;0.20;99.90
12872;DHT22;6504;53.766;9.626;2023-02-05T04:27:51;0.20;99.90
12872;DHT22;6504;53.766;9.626;2023-02-05T04:30:21;0.20;99.90
12872;DHT22;6504;53.766;9.626;2023-02-05T04:32:49;0.20;99.90
12872;DHT22;6504;53.766;9.626;2023-02-05T04:35:17;0.20;99.90
12872;DHT22;6504;53.766;9.626;2023-02-05T04:37:46;0.10;99.90
12872;DHT22;6504;53.766;9.626;2023-02-05T04:40:14;0.20;99.90
12872;DHT22;6504;53.766;9.626;2023-02-05T04:42:42;0.20;99.90
12872;DHT22;6504;53.766;9.626;2023-02-05T04:45:11;0.20;99.90
12872;DHT22;6504;53.766;9.626;2023-02-05T04:47:39;0.20;99.90
12872;DHT22;6504;53.766;9.626;2023-02-05T04:50:07;0.20;99.90
12872;DHT22;6504;53.766;9.626;2023-02-05T04:52:35;0.20;99.90
12872;DHT22;6504;53.766;9.626;2023-02-05T04:55:06;0.20;99.90
12872;DHT22;6504;53.766;9.626;2023-02-05T04:57:34;0.20;99.90
12872;DHT22;6504;53.766;9.626;2023-02-05T05:00:03;0.20;99.90
12872;DHT22;6504;53.766;9.626;2023-02-05T05:02:31;0.20;99.90
12872;DHT22;6504;53.766;9.626;2023-02-05T05:04:59;0.20;99.90
12872;DHT22;6504;53.766;9.626;2023-02-05T05:07:28;0.20;99.90
12872;DHT22;6504;53.766;9.626;2023-02-05T05:09:56;0.20;99.90
12872;DHT22;6504;53.766;9.626;2023-02-05T05:12:26;0.20;99.90
12872;DHT22;6504;53.766;9.626;2023-02-05T05:14:54;0.20;99.90
12872;DHT22;6504;53.766;9.626;2023-02-05T05:17:22;0.20;99.90
12872;DHT22;6504;53.766;9.626;2023-02-05T05:19:50;0.20;99.90
12872;DHT22;6504;53.766;9.626;2023-02-05T05:22:18;0.20;99.90
12872;DHT22;6504;53.766;9.626;2023-02-05T05:24:46;0.20;99.90
12872;DHT22;6504;53.766;9.626;2023-02-05T05:27:14;0.20;99.90
12872;DHT22;6504;53.766;9.626;2023-02-05T05:29:45;0.20;99.90
12872;DHT22;6504;53.766;9.626;2023-02-05T05:32:13;0.30;99.90
12872;DHT22;6504;53.766;9.626;2023-02-05T05:34:41;0.20;99.90
12872;DHT22;6504;53.766;9.626;2023-02-05T05:37:09;0.30;99.90
12872;DHT22;6504;53.766;9.626;2023-02-05T05:39:37;0.30;99.90
12872;DHT22;6504;53.766;9.626;2023-02-05T05:42:23;0.20;99.90
12872;DHT22;6504;53.766;9.626;2023-02-05T05:45:10;0.30;99.90
12872;DHT22;6504;53.766;9.626;2023-02-05T05:47:38;0.30;99.90
12872;DHT22;6504;53.766;9.626;2023-02-05T05:50:06;0.30;99.90
12872;DHT22;6504;53.766;9.626;2023-02-05T05:52:34;0.30;99.90
12872;DHT22;6504;53.766;9.626;2023-02-05T05:55:03;0.30;99.90
12872;DHT22;6504;53.766;9.626;2023-02-05T05:57:31;0.30;99.90
12872;DHT22;6504;53.766;9.626;2023-02-05T05:59:59;0.30;99.90
12872;DHT22;6504;53.766;9.626;2023-02-05T06:02:29;0.30;99.90
12872;DHT22;6504;53.766;9.626;2023-02-05T06:04:58;0.30;99.90
12872;DHT22;6504;53.766;9.626;2023-02-05T06:07:27;0.30;99.90
12872;DHT22;6504;53.766;9.626;2023-02-05T06:09:55;0.30;99.90
12872;DHT22;6504;53.766;9.626;2023-02-05T06:12:23;0.30;99.90
12872;DHT22;6504;53.766;9.626;2023-02-05T06:14:52;0.30;99.90
12872;DHT22;6504;53.766;9.626;2023-02-05T06:17:20;0.30;99.90
12872;DHT22;6504;53.766;9.626;2023-02-05T06:19:50;0.30;99.90
12872;DHT22;6504;53.766;9.626;2023-02-05T06:22:18;0.30;99.90
12872;DHT22;6504;53.766;9.626;2023-02-05T06:24:46;0.30;99.90
12872;DHT22;6504;53.766;9.626;2023-02-05T06:27:14;0.30;99.90
12872;DHT22;6504;53.766;9.626;2023-02-05T06:29:42;0.30;99.90
12872;DHT22;6504;53.766;9.626;2023-02-05T06:32:10;0.30;99.90
12872;DHT22;6504;53.766;9.626;2023-02-05T06:34:38;0.30;99.90
12872;DHT22;6504;53.766;9.626;2023-02-05T06:37:08;0.30;99.90
12872;DHT22;6504;53.766;9.626;2023-02-05T06:39:36;0.30;99.90
12872;DHT22;6504;53.766;9.626;2023-02-05T06:42:04;0.30;99.90
12872;DHT22;6504;53.766;9.626;2023-02-05T06:44:32;0.30;99.90
12872;DHT22;6504;53.766;9.626;2023-02-05T06:47:01;0.30;99.90
12872;DHT22;6504;53.766;9.626;2023-02-05T06:49:29;0.30;99.90
12872;DHT22;6504;53.766;9.626;2023-02-05T06:51:57;0.30;99.90
12872;DHT22;6504;53.766;9.626;2023-02-05T06:54:26;0.30;99.90
12872;DHT22;6504;53.766;9.626;2023-02-05T06:56:54;0.30;99.90
12872;DHT22;6504;53.766;9.626;2023-02-05T06:59:22;0.30;99.90
12872;DHT22;6504;53.766;9.626;2023-02-05T07:01:50;0.30;99.90
12872;DHT22;6504;53.766;9.626;2023-02-05T07:04:19;0.30;99.90
12872;DHT22;6504;53.766;9.626;2023-02-05T07:06:47;0.30;99.90
12872;DHT22;6504;53.766;9.626;2023-02-05T07:09:15;0.30;99.90
12872;DHT22;6504;53.766;9.626;2023-02-05T07:11:44;0.30;99.90
12872;DHT22;6504;53.766;9.626;2023-02-05T07:14:12;0.30;99.90
12872;DHT22;6504;53.766;9.626;2023-02-05T07:16:40;0.20;99.90
12872;DHT22;6504;53.766;9.626;2023-02-05T07:19:08;0.20;99.90
12872;DHT22;6504;53.766;9.626;2023-02-05T07:21:37;0.20;99.90
12872;DHT22;6504;53.766;9.626;2023-02-05T07:24:05;0.20;99.90
12872;DHT22;6504;53.766;9.626;2023-02-05T07:26:33;0.10;99.90
12872;DHT22;6504;53.766;9.626;2023-02-05T07:29:03;0.10;99.90
12872;DHT22;6504;53.766;9.626;2023-02-05T07:31:32;0.10;99.90
12872;DHT22;6504;53.766;9.626;2023-02-05T07:34:00;0.10;99.90
12872;DHT22;6504;53.766;9.626;2023-02-05T07:36:28;0.10;99.90
12872;DHT22;6504;53.766;9.626;2023-02-05T07:38:56;0.10;99.90
12872;DHT22;6504;53.766;9.626;2023-02-05T07:41:24;0.10;99.90
12872;DHT22;6504;53.766;9.626;2023-02-05T07:43:53;0.10;99.90
12872;DHT22;6504;53.766;9.626;2023-02-05T07:46:22;0.10;99.90
12872;DHT22;6504;53.766;9.626;2023-02-05T07:48:51;0.10;99.90
12872;DHT22;6504;53.766;9.626;2023-02-05T07:51:20;0.20;99.90
12872;DHT22;6504;53.766;9.626;2023-02-05T07:53:49;0.20;99.90
12872;DHT22;6504;53.766;9.626;2023-02-05T07:56:17;0.20;99.90
12872;DHT22;6504;53.766;9.626;2023-02-05T07:58:48;0.20;99.90
12872;DHT22;6504;53.766;9.626;2023-02-05T08:01:16;0.20;99.90
12872;DHT22;6504;53.766;9.626;2023-02-05T08:03:46;0.20;99.90
12872;DHT22;6504;53.766;9.626;2023-02-05T08:06:14;0.30;99.90
12872;DHT22;6504;53.766;9.626;2023-02-05T08:08:42;0.30;99.90
12872;DHT22;6504;53.766;9.626;2023-02-05T08:11:13;0.30;99.90
12872;DHT22;6504;53.766;9.626;2023-02-05T08:13:41;0.30;99.90
12872;DHT22;6504;53.766;9.626;2023-02-05T08:16:10;0.30;99.90
12872;DHT22;6504;53.766;9.626;2023-02-05T08:18:41;0.30;99.90
12872;DHT22;6504;53.766;9.626;2023-02-05T08:21:11;0.30;99.90
12872;DHT22;6504;53.766;9.626;2023-02-05T08:23:39;0.30;99.90
12872;DHT22;6504;53.766;9.626;2023-02-05T08:26:07;0.30;99.90
12872;DHT22;6504;53.766;9.626;2023-02-05T08:28:35;0.40;99.90
12872;DHT22;6504;53.766;9.626;2023-02-05T08:31:09;0.40;99.90
12872;DHT22;6504;53.766;9.626;2023-02-05T08:33:37;0.40;99.90
12872;DHT22;6504;53.766;9.626;2023-02-05T08:36:06;0.50;99.90
12872;DHT22;6504;53.766;9.626;2023-02-05T08:38:36;0.50;99.90
12872;DHT22;6504;53.766;9.626;2023-02-05T08:41:05;0.50;99.90
12872;DHT22;6504;53.766;9.626;2023-02-05T08:43:39;0.50;99.90
12872;DHT22;6504;53.766;9.626;2023-02-05T08:46:08;0.50;99.90
12872;DHT22;6504;53.766;9.626;2023-02-05T08:48:37;0.60;99.90
12872;DHT22;6504;53.766;9.626;2023-02-05T08:51:07;0.60;99.90
12872;DHT22;6504;53.766;9.626;2023-02-05T08:53:37;0.60;99.90
12872;DHT22;6504;53.766;9.626;2023-02-05T08:56:06;0.60;99.90
12872;DHT22;6504;53.766;9.626;2023-02-05T08:58:36;0.60;99.90
12872;DHT22;6504;53.766;9.626;2023-02-05T09:01:06;0.60;99.90
12872;DHT22;6504;53.766;9.626;2023-02-05T09:03:35;0.60;99.90
12872;DHT22;6504;53.766;9.626;2023-02-05T09:06:05;0.60;99.90
12872;DHT22;6504;53.766;9.626;2023-02-05T09:08:34;0.70;99.90
12872;DHT22;6504;53.766;9.626;2023-02-05T09:11:04;0.70;99.90
12872;DHT22;6504;53.766;9.626;2023-02-05T09:13:33;0.70;99.90
12872;DHT22;6504;53.766;9.626;2023-02-05T09:16:01;0.70;99.90
12872;DHT22;6504;53.766;9.626;2023-02-05T09:18:29;0.70;99.90
12872;DHT22;6504;53.766;9.626;2023-02-05T09:20:58;0.70;99.90
12872;DHT22;6504;53.766;9.626;2023-02-05T09:23:27;0.70;99.90
12872;DHT22;6504;53.766;9.626;2023-02-05T09:25:57;0.70;99.90
12872;DHT22;6504;53.766;9.626;2023-02-05T09:28:26;0.70;99.90
12872;DHT22;6504;53.766;9.626;2023-02-05T09:30:55;0.70;99.90
12872;DHT22;6504;53.766;9.626;2023-02-05T09:33:23;0.70;99.90
12872;DHT22;6504;53.766;9.626;2023-02-05T09:35:51;0.80;99.90
12872;DHT22;6504;53.766;9.626;2023-02-05T09:38:19;0.80;99.90
12872;DHT22;6504;53.766;9.626;2023-02-05T09:40:54;0.80;99.90
12872;DHT22;6504;53.766;9.626;2023-02-05T09:43:34;0.80;99.90
12872;DHT22;6504;53.766;9.626;2023-02-05T09:46:09;0.80;99.90
12872;DHT22;6504;53.766;9.626;2023-02-05T09:48:47;0.80;99.90
12872;DHT22;6504;53.766;9.626;2023-02-05T09:51:27;0.90;99.90
12872;DHT22;6504;53.766;9.626;2023-02-05T09:54:02;0.90;99.90
12872;DHT22;6504;53.766;9.626;2023-02-05T09:56:32;0.90;99.90
12872;DHT22;6504;53.766;9.626;2023-02-05T09:59:05;1.00;99.90
12872;DHT22;6504;53.766;9.626;2023-02-05T10:01:41;1.00;99.90
12872;DHT22;6504;53.766;9.626;2023-02-05T10:04:13;1.00;99.90
12872;DHT22;6504;53.766;9.626;2023-02-05T10:09:48;1.00;99.90
12872;DHT22;6504;53.766;9.626;2023-02-05T10:12:29;1.10;99.90
12872;DHT22;6504;53.766;9.626;2023-02-05T10:15:15;1.10;99.90
12872;DHT22;6504;53.766;9.626;2023-02-05T10:17:56;1.10;99.90
12872;DHT22;6504;53.766;9.626;2023-02-05T10:23:42;1.10;99.90
12872;DHT22;6504;53.766;9.626;2023-02-05T10:26:15;1.10;99.90
12872;DHT22;6504;53.766;9.626;2023-02-05T10:28:56;1.10;99.90
12872;DHT22;6504;53.766;9.626;2023-02-05T10:31:36;1.00;99.90
12872;DHT22;6504;53.766;9.626;2023-02-05T10:34:18;1.10;99.90
12872;DHT22;6504;53.766;9.626;2023-02-05T10:36:50;1.00;99.90
12872;DHT22;6504;53.766;9.626;2023-02-05T10:39:23;1.00;99.90
12872;DHT22;6504;53.766;9.626;2023-02-05T10:41:57;1.00;99.90
12872;DHT22;6504;53.766;9.626;2023-02-05T10:44:29;1.10;99.90
12872;DHT22;6504;53.766;9.626;2023-02-05T10:47:04;1.10;99.90
12872;DHT22;6504;53.766;9.626;2023-02-05T10:49:41;1.10;99.90
12872;DHT22;6504;53.766;9.626;2023-02-05T10:52:14;1.10;99.90
12872;DHT22;6504;53.766;9.626;2023-02-05T10:54:45;1.10;99.90
12872;DHT22;6504;53.766;9.626;2023-02-05T10:57:16;1.10;99.90
12872;DHT22;6504;53.766;9.626;2023-02-05T10:59:51;1.10;99.90
12872;DHT22;6504;53.766;9.626;2023-02-05T11:02:24;1.10;99.90
12872;DHT22;6504;53.766;9.626;2023-02-05T11:04:57;1.10;99.90
12872;DHT22;6504;53.766;9.626;2023-02-05T11:07:33;1.10;99.90
12872;DHT22;6504;53.766;9.626;2023-02-05T11:10:13;1.10;99.90
12872;DHT22;6504;53.766;9.626;2023-02-05T11:12:43;1.10;99.90
12872;DHT22;6504;53.766;9.626;2023-02-05T11:15:21;1.10;99.90
12872;DHT22;6504;53.766;9.626;2023-02-05T11:17:53;1.10;99.90
12872;DHT22;6504;53.766;9.626;2023-02-05T11:20:30;1.10;99.90
12872;DHT22;6504;53.766;9.626;2023-02-05T11:23:16;1.10;99.90
12872;DHT22;6504;53.766;9.626;2023-02-05T11:25:55;1.20;99.90
12872;DHT22;6504;53.766;9.626;2023-02-05T11:28:27;1.20;99.90
12872;DHT22;6504;53.766;9.626;2023-02-05T11:30:56;1.20;99.90
12872;DHT22;6504;53.766;9.626;2023-02-05T11:33:29;1.20;99.90
12872;DHT22;6504;53.766;9.626;2023-02-05T11:36:00;1.20;99.90
12872;DHT22;6504;53.766;9.626;2023-02-05T11:38:35;1.20;99.90
12872;DHT22;6504;53.766;9.626;2023-02-05T11:41:10;1.30;99.90
12872;DHT22;6504;53.766;9.626;2023-02-05T11:43:44;1.30;99.90
12872;DHT22;6504;53.766;9.626;2023-02-05T11:46:15;1.30;99.90
12872;DHT22;6504;53.766;9.626;2023-02-05T11:48:53;1.40;99.90
12872;DHT22;6504;53.766;9.626;2023-02-05T11:51:37;1.40;99.90
12872;DHT22;6504;53.766;9.626;2023-02-05T11:54:17;1.50;99.90
12872;DHT22;6504;53.766;9.626;2023-02-05T11:57:03;1.50;99.90
12872;DHT22;6504;53.766;9.626;2023-02-05T11:59:32;1.60;99.90
12872;DHT22;6504;53.766;9.626;2023-02-05T12:02:26;1.60;99.90
12872;DHT22;6504;53.766;9.626;2023-02-05T12:05:05;1.60;99.90
12872;DHT22;6504;53.766;9.626;2023-02-05T12:07:39;1.70;99.90
12872;DHT22;6504;53.766;9.626;2023-02-05T12:10:15;1.70;99.90
12872;DHT22;6504;53.766;9.626;2023-02-05T12:12:48;1.70;99.90
12872;DHT22;6504;53.766;9.626;2023-02-05T12:15:22;1.70;99.90
12872;DHT22;6504;53.766;9.626;2023-02-05T12:17:56;1.70;99.90
12872;DHT22;6504;53.766;9.626;2023-02-05T12:20:29;1.70;99.90
12872;DHT22;6504;53.766;9.626;2023-02-05T12:23:21;1.80;99.90
12872;DHT22;6504;53.766;9.626;2023-02-05T12:26:01;1.70;99.90
12872;DHT22;6504;53.766;9.626;2023-02-05T12:28:40;1.80;99.90
12872;DHT22;6504;53.766;9.626;2023-02-05T12:31:17;1.80;99.90
12872;DHT22;6504;53.766;9.626;2023-02-05T12:34:03;1.80;99.90
12872;DHT22;6504;53.766;9.626;2023-02-05T12:36:45;1.80;99.90
12872;DHT22;6504;53.766;9.626;2023-02-05T12:39:31;1.90;99.90
12872;DHT22;6504;53.766;9.626;2023-02-05T12:42:12;1.90;99.90
12872;DHT22;6504;53.766;9.626;2023-02-05T12:44:50;1.90;99.90
12872;DHT22;6504;53.766;9.626;2023-02-05T12:47:35;2.00;99.90
12872;DHT22;6504;53.766;9.626;2023-02-05T12:50:23;2.00;99.90
12872;DHT22;6504;53.766;9.626;2023-02-05T12:53:08;2.10;99.90
12872;DHT22;6504;53.766;9.626;2023-02-05T12:55:47;2.10;99.90
12872;DHT22;6504;53.766;9.626;2023-02-05T12:58:19;2.10;99.90
12872;DHT22;6504;53.766;9.626;2023-02-05T13:00:49;2.20;99.90
12872;DHT22;6504;53.766;9.626;2023-02-05T13:03:26;2.20;99.90
12872;DHT22;6504;53.766;9.626;2023-02-05T13:05:58;2.20;99.90
12872;DHT22;6504;53.766;9.626;2023-02-05T13:08:35;2.30;99.90
12872;DHT22;6504;53.766;9.626;2023-02-05T13:11:10;2.30;99.90
12872;DHT22;6504;53.766;9.626;2023-02-05T13:13:45;2.30;99.90
12872;DHT22;6504;53.766;9.626;2023-02-05T13:16:18;2.30;99.90
12872;DHT22;6504;53.766;9.626;2023-02-05T13:18:53;2.30;99.90
12872;DHT22;6504;53.766;9.626;2023-02-05T13:21:22;2.40;99.90
12872;DHT22;6504;53.766;9.626;2023-02-05T13:24:21;2.40;99.90
12872;DHT22;6504;53.766;9.626;2023-02-05T13:27:20;2.40;99.90
12872;DHT22;6504;53.766;9.626;2023-02-05T13:30:11;2.40;99.90
12872;DHT22;6504;53.766;9.626;2023-02-05T13:32:41;2.40;99.90
12872;DHT22;6504;53.766;9.626;2023-02-05T13:35:11;2.40;99.90
12872;DHT22;6504;53.766;9.626;2023-02-05T13:37:57;2.50;99.90
12872;DHT22;6504;53.766;9.626;2023-02-05T13:43:40;2.50;99.90
12872;DHT22;6504;53.766;9.626;2023-02-05T13:46:35;2.50;99.90
12872;DHT22;6504;53.766;9.626;2023-02-05T13:49:26;2.50;99.90
12872;DHT22;6504;53.766;9.626;2023-02-05T13:52:22;2.50;99.90
12872;DHT22;6504;53.766;9.626;2023-02-05T13:55:06;2.50;99.90
12872;DHT22;6504;53.766;9.626;2023-02-05T13:58:15;2.60;99.90
12872;DHT22;6504;53.766;9.626;2023-02-05T14:00:58;2.60;99.90
12872;DHT22;6504;53.766;9.626;2023-02-05T14:03:33;2.60;99.90
12872;DHT22;6504;53.766;9.626;2023-02-05T14:06:18;2.60;99.90
12872;DHT22;6504;53.766;9.626;2023-02-05T14:08:50;2.60;99.90
12872;DHT22;6504;53.766;9.626;2023-02-05T14:11:24;2.60;99.90
12872;DHT22;6504;53.766;9.626;2023-02-05T14:14:25;2.60;99.90
12872;DHT22;6504;53.766;9.626;2023-02-05T14:16:54;2.60;99.90
12872;DHT22;6504;53.766;9.626;2023-02-05T14:19:26;2.70;99.90
12872;DHT22;6504;53.766;9.626;2023-02-05T14:22:33;2.70;99.90
12872;DHT22;6504;53.766;9.626;2023-02-05T14:25:02;2.70;99.90
12872;DHT22;6504;53.766;9.626;2023-02-05T14:27:47;2.70;99.90
12872;DHT22;6504;53.766;9.626;2023-02-05T14:30:45;2.70;99.90
12872;DHT22;6504;53.766;9.626;2023-02-05T14:33:35;2.70;99.90
12872;DHT22;6504;53.766;9.626;2023-02-05T14:39:20;2.70;99.90
12872;DHT22;6504;53.766;9.626;2023-02-05T14:41:53;2.70;99.90
12872;DHT22;6504;53.766;9.626;2023-02-05T14:44:27;2.70;99.90
12872;DHT22;6504;53.766;9.626;2023-02-05T14:47:07;2.70;99.90
12872;DHT22;6504;53.766;9.626;2023-02-05T14:49:44;2.70;99.90
12872;DHT22;6504;53.766;9.626;2023-02-05T14:52:26;2.70;99.90
12872;DHT22;6504;53.766;9.626;2023-02-05T14:54:58;2.70;99.90
12872;DHT22;6504;53.766;9.626;2023-02-05T14:57:40;2.70;99.90
12872;DHT22;6504;53.766;9.626;2023-02-05T15:00:27;2.70;99.90
12872;DHT22;6504;53.766;9.626;2023-02-05T15:03:07;2.70;99.90
12872;DHT22;6504;53.766;9.626;2023-02-05T15:05:45;2.70;99.90
12872;DHT22;6504;53.766;9.626;2023-02-05T15:08:23;2.60;99.90
12872;DHT22;6504;53.766;9.626;2023-02-05T15:11:04;2.60;99.90
12872;DHT22;6504;53.766;9.626;2023-02-05T15:13:33;2.60;99.90
12872;DHT22;6504;53.766;9.626;2023-02-05T15:16:17;2.60;99.90
12872;DHT22;6504;53.766;9.626;2023-02-05T15:18:49;2.60;99.90
12872;DHT22;6504;53.766;9.626;2023-02-05T15:21:22;2.60;99.90
12872;DHT22;6504;53.766;9.626;2023-02-05T15:23:58;2.60;99.90
12872;DHT22;6504;53.766;9.626;2023-02-05T15:26:35;2.60;99.90
12872;DHT22;6504;53.766;9.626;2023-02-05T15:29:13;2.60;99.90
12872;DHT22;6504;53.766;9.626;2023-02-05T15:31:46;2.60;99.90
12872;DHT22;6504;53.766;9.626;2023-02-05T15:34:37;2.70;99.90
12872;DHT22;6504;53.766;9.626;2023-02-05T15:37:16;2.70;99.90
12872;DHT22;6504;53.766;9.626;2023-02-05T15:39:49;2.70;99.90
12872;DHT22;6504;53.766;9.626;2023-02-05T15:42:20;2.70;99.90
12872;DHT22;6504;53.766;9.626;2023-02-05T15:44:51;2.70;99.90
12872;DHT22;6504;53.766;9.626;2023-02-05T15:47:21;2.70;99.90
12872;DHT22;6504;53.766;9.626;2023-02-05T15:49:54;2.70;99.90
12872;DHT22;6504;53.766;9.626;2023-02-05T15:52:25;2.70;99.90
12872;DHT22;6504;53.766;9.626;2023-02-05T15:54:55;2.80;99.90
12872;DHT22;6504;53.766;9.626;2023-02-05T15:57:26;2.80;99.90
12872;DHT22;6504;53.766;9.626;2023-02-05T15:59:57;2.80;99.90
12872;DHT22;6504;53.766;9.626;2023-02-05T16:02:29;2.80;99.90
12872;DHT22;6504;53.766;9.626;2023-02-05T16:05:18;2.80;99.90
12872;DHT22;6504;53.766;9.626;2023-02-05T16:07:50;2.80;99.90
12872;DHT22;6504;53.766;9.626;2023-02-05T16:10:35;2.80;99.90
12872;DHT22;6504;53.766;9.626;2023-02-05T16:13:14;2.80;99.90
12872;DHT22;6504;53.766;9.626;2023-02-05T16:15:47;2.70;99.90
12872;DHT22;6504;53.766;9.626;2023-02-05T16:18:35;2.70;99.90
12872;DHT22;6504;53.766;9.626;2023-02-05T16:21:11;2.70;99.90
12872;DHT22;6504;53.766;9.626;2023-02-05T16:23:44;2.70;99.90
12872;DHT22;6504;53.766;9.626;2023-02-05T16:26:20;2.70;99.90
12872;DHT22;6504;53.766;9.626;2023-02-05T16:28:53;2.70;99.90
12872;DHT22;6504;53.766;9.626;2023-02-05T16:31:25;2.70;99.90
12872;DHT22;6504;53.766;9.626;2023-02-05T16:33:56;2.70;99.90
12872;DHT22;6504;53.766;9.626;2023-02-05T16:36:29;2.70;99.90
12872;DHT22;6504;53.766;9.626;2023-02-05T16:39:00;2.70;99.90
12872;DHT22;6504;53.766;9.626;2023-02-05T16:41:32;2.60;99.90
12872;DHT22;6504;53.766;9.626;2023-02-05T16:44:05;2.60;99.90
12872;DHT22;6504;53.766;9.626;2023-02-05T16:46:35;2.60;99.90
12872;DHT22;6504;53.766;9.626;2023-02-05T16:49:28;2.60;99.90
12872;DHT22;6504;53.766;9.626;2023-02-05T16:51:59;2.60;99.90
12872;DHT22;6504;53.766;9.626;2023-02-05T16:54:30;2.60;99.90